createdAt,value
2019-06-08T00:02:18.382Z,11.10
2019-06-08T00:04:50.928Z,10.83
2019-06-08T00:07:24.883Z,12.93
2019-06-08T00:09:57.922Z,10.70
2019-06-08T00:12:31.368Z,11.50
2019-06-08T00:15:07.294Z,11.63
2019-06-08T00:17:43.145Z,13.13
2019-06-08T00:20:17.699Z,14.17
2019-06-08T00:22:51.151Z,14.13
2019-06-08T00:25:52.256Z,10.20
2019-06-08T00:28:25.175Z,10.13
2019-06-08T00:30:57.050Z,10.97
2019-06-08T00:33:29.954Z,16.30
2019-06-08T00:36:01.255Z,18.07
2019-06-08T00:38:34.208Z,11.10
2019-06-08T00:41:09.796Z,10.90
2019-06-08T00:43:42.148Z,12.20
2019-06-08T00:46:38.510Z,14.73
2019-06-08T00:49:11.996Z,17.03
2019-06-08T00:51:43.224Z,18.20
2019-06-08T00:54:17.367Z,15.37
2019-06-08T00:56:49.406Z,18.50
2019-06-08T00:59:24.015Z,15.60
2019-06-08T01:01:55.435Z,17.17
2019-06-08T01:04:27.412Z,18.43
2019-06-08T01:07:02.583Z,32.97
2019-06-08T01:09:34.307Z,16.43
2019-06-08T01:12:05.669Z,16.00
2019-06-08T01:14:37.520Z,17.30
2019-06-08T01:17:09.366Z,16.67
2019-06-08T01:19:44.142Z,16.73
2019-06-08T01:22:16.327Z,20.03
2019-06-08T01:24:50.152Z,20.83
2019-06-08T01:27:23.828Z,20.10
2019-06-08T01:29:55.393Z,21.43
2019-06-08T01:32:28.684Z,19.90
2019-06-08T01:35:00.797Z,20.77
2019-06-08T01:37:32.306Z,17.90
2019-06-08T01:40:06.526Z,19.23
2019-06-08T01:42:39.654Z,23.43
2019-06-08T01:45:15.256Z,22.60
2019-06-08T01:47:47.572Z,19.90
2019-06-08T01:50:34.821Z,25.00
2019-06-08T01:53:07.623Z,18.47
2019-06-08T01:55:39.433Z,25.80
2019-06-08T01:58:11.492Z,25.70
2019-06-08T02:00:45.343Z,20.60
2019-06-08T02:03:20.352Z,18.80
2019-06-08T02:06:02.287Z,22.87
2019-06-08T02:08:34.750Z,24.03
2019-06-08T02:11:08.686Z,26.20
2019-06-08T02:13:42.424Z,21.53
2019-06-08T02:16:16.833Z,22.67
2019-06-08T02:18:51.273Z,26.57
2019-06-08T02:21:24.668Z,17.80
2019-06-08T02:23:56.839Z,16.07
2019-06-08T02:26:30.371Z,17.33
2019-06-08T02:29:03.837Z,13.00
2019-06-08T02:31:37.717Z,13.17
2019-06-08T02:34:09.914Z,19.90
2019-06-08T02:36:41.706Z,23.03
2019-06-08T02:39:14.936Z,13.97
2019-06-08T02:41:49.085Z,14.30
2019-06-08T02:44:21.311Z,16.73
2019-06-08T02:46:54.439Z,14.53
2019-06-08T02:49:26.930Z,19.73
2019-06-08T02:51:58.999Z,19.83
2019-06-08T02:54:35.422Z,22.67
2019-06-08T02:57:07.941Z,14.73
2019-06-08T02:59:41.039Z,24.97
2019-06-08T03:02:14.676Z,17.67
2019-06-08T03:04:48.088Z,16.43
2019-06-08T03:07:21.235Z,15.00
2019-06-08T03:09:59.356Z,14.70
2019-06-08T03:12:35.163Z,24.53
2019-06-08T03:15:09.753Z,26.63
2019-06-08T03:18:00.433Z,13.33
2019-06-08T03:20:37.922Z,11.90
2019-06-08T03:23:18.165Z,14.20
2019-06-08T03:25:52.901Z,8.13
2019-06-08T03:28:25.982Z,11.13
2019-06-08T03:30:58.525Z,12.23
2019-06-08T03:33:31.026Z,19.83
2019-06-08T03:36:02.254Z,7.50
2019-06-08T03:38:37.501Z,5.43
2019-06-08T03:41:09.995Z,6.90
2019-06-08T03:43:44.220Z,5.50
2019-06-08T03:46:17.005Z,11.70
2019-06-08T03:48:50.163Z,12.33
2019-06-08T03:51:24.065Z,8.80
2019-06-08T03:53:56.164Z,7.00
2019-06-08T03:56:29.175Z,7.93
2019-06-08T03:59:02.457Z,10.90
2019-06-08T04:01:37.424Z,5.97
2019-06-08T04:04:11.155Z,9.10
2019-06-08T04:06:45.716Z,2.43
2019-06-08T04:09:17.473Z,9.87
2019-06-08T04:11:51.633Z,19.87
2019-06-08T04:14:25.593Z,6.57
2019-06-08T04:16:58.266Z,6.40
2019-06-08T04:19:32.713Z,6.93
2019-06-08T04:22:07.100Z,5.00
2019-06-08T04:24:42.478Z,8.10
2019-06-08T04:27:16.311Z,8.17
2019-06-08T04:29:50.903Z,6.83
2019-06-08T04:32:24.477Z,13.17
2019-06-08T04:34:57.696Z,2.97
2019-06-08T04:37:29.426Z,8.20
2019-06-08T04:40:11.242Z,4.50
2019-06-08T04:42:51.093Z,2.90
2019-06-08T04:45:27.489Z,13.83
2019-06-08T04:48:00.567Z,4.30
2019-06-08T04:50:34.461Z,2.30
2019-06-08T04:53:07.431Z,12.90
2019-06-08T04:55:44.988Z,13.03
2019-06-08T04:58:19.090Z,2.20
2019-06-08T05:00:54.444Z,11.20
2019-06-08T05:03:27.363Z,3.90
2019-06-08T05:05:58.549Z,4.80
2019-06-08T05:08:32.326Z,3.20
2019-06-08T05:11:06.667Z,9.77
2019-06-08T05:13:43.352Z,8.07
2019-06-08T05:16:17.417Z,14.47
2019-06-08T05:18:49.729Z,1.57
2019-06-08T05:21:23.426Z,2.80
2019-06-08T05:23:58.922Z,2.30
2019-06-08T05:26:31.709Z,1.27
2019-06-08T05:29:05.908Z,3.93
2019-06-08T05:31:41.534Z,1.90
2019-06-08T05:34:16.448Z,2.60
2019-06-08T05:36:47.645Z,1.93
2019-06-08T05:39:22.217Z,1.63
2019-06-08T05:41:54.816Z,1.63
2019-06-08T05:44:26.031Z,10.90
2019-06-08T05:47:00.618Z,7.30
2019-06-08T05:49:32.607Z,3.40
2019-06-08T05:52:07.664Z,10.43
2019-06-08T05:54:41.730Z,1.97
2019-06-08T05:57:17.669Z,12.47
2019-06-08T05:59:50.935Z,7.03
2019-06-08T06:02:26.535Z,1.37
2019-06-08T06:05:02.754Z,1.47
2019-06-08T06:07:46.742Z,5.43
2019-06-08T06:10:20.698Z,7.40
2019-06-08T06:12:57.892Z,6.23
2019-06-08T06:15:31.857Z,4.13
2019-06-08T06:18:07.938Z,1.70
2019-06-08T06:20:40.993Z,4.50
2019-06-08T06:23:17.163Z,1.93
2019-06-08T06:25:51.819Z,2.03
2019-06-08T06:28:25.227Z,2.33
2019-06-08T06:30:58.930Z,7.50
2019-06-08T06:33:34.672Z,5.03
2019-06-08T06:36:08.088Z,4.37
2019-06-08T06:38:41.890Z,1.27
2019-06-08T06:41:15.986Z,1.33
2019-06-08T06:43:50.410Z,4.00
2019-06-08T06:46:26.843Z,2.00
2019-06-08T06:49:00.259Z,4.77
2019-06-08T06:51:35.748Z,1.30
2019-06-08T06:54:08.054Z,1.13
2019-06-08T06:56:45.253Z,1.10
2019-06-08T06:59:19.936Z,1.50
2019-06-08T07:01:57.510Z,1.20
2019-06-08T07:04:30.814Z,2.03
2019-06-08T07:07:04.021Z,4.50
2019-06-08T07:09:35.234Z,2.60
2019-06-08T07:12:07.123Z,1.60
2019-06-08T07:14:38.347Z,8.63
2019-06-08T07:17:12.134Z,7.53
2019-06-08T07:19:50.425Z,8.43
2019-06-08T07:22:27.088Z,1.53
2019-06-08T07:25:02.641Z,4.80
2019-06-08T07:27:46.421Z,3.03
2019-06-08T07:30:27.901Z,5.70
2019-06-08T07:33:01.157Z,3.70
2019-06-08T07:35:39.096Z,1.83
2019-06-08T07:38:12.192Z,1.40
2019-06-08T07:40:48.426Z,3.40
2019-06-08T07:43:23.008Z,3.77
2019-06-08T07:45:56.339Z,2.70
2019-06-08T07:48:29.262Z,9.33
2019-06-08T07:51:02.658Z,1.37
2019-06-08T07:53:35.502Z,2.07
2019-06-08T07:56:07.156Z,5.63
2019-06-08T07:58:38.651Z,3.27
2019-06-08T08:01:11.076Z,3.97
2019-06-08T08:03:46.209Z,6.20
2019-06-08T08:06:18.722Z,2.10
2019-06-08T08:08:54.690Z,5.10
2019-06-08T08:11:39.714Z,2.30
2019-06-08T08:14:13.499Z,6.00
2019-06-08T08:16:49.272Z,1.83
2019-06-08T08:19:22.279Z,1.57
2019-06-08T08:22:02.364Z,2.70
2019-06-08T08:24:35.057Z,1.33
2019-06-08T08:27:13.940Z,9.70
2019-06-08T08:29:51.456Z,5.57
2019-06-08T08:32:24.850Z,2.80
2019-06-08T08:35:23.274Z,1.40
2019-06-08T08:38:04.575Z,3.07
2019-06-08T08:40:39.412Z,3.20
2019-06-08T08:43:18.536Z,1.07
2019-06-08T08:45:52.087Z,3.80
2019-06-08T08:48:30.933Z,6.17
2019-06-08T08:51:03.380Z,1.87
2019-06-08T08:53:37.503Z,2.90
2019-06-08T08:56:12.524Z,2.40
2019-06-08T08:58:47.789Z,1.07
2019-06-08T09:01:23.824Z,5.57
2019-06-08T09:04:01.757Z,1.30
2019-06-08T09:06:31.712Z,3.43
2019-06-08T09:09:11.420Z,11.03
2019-06-08T09:11:43.421Z,1.00
2019-06-08T09:14:23.400Z,3.73
2019-06-08T09:17:03.181Z,1.67
2019-06-08T09:19:38.273Z,2.60
2019-06-08T09:22:10.125Z,1.20
2019-06-08T09:25:03.150Z,1.50
2019-06-08T09:27:43.385Z,2.27
2019-06-08T09:30:22.256Z,1.00
2019-06-08T09:32:59.134Z,5.90
2019-06-08T09:35:37.862Z,2.03
2019-06-08T09:38:10.951Z,1.30
2019-06-08T09:40:49.006Z,3.27
2019-06-08T09:43:20.980Z,5.13
2019-06-08T09:45:58.734Z,1.30
2019-06-08T09:48:29.044Z,1.13
2019-06-08T09:51:05.782Z,2.90
2019-06-08T09:53:41.848Z,1.00
2019-06-08T09:56:18.479Z,3.20
2019-06-08T09:58:55.962Z,1.93
2019-06-08T10:01:28.963Z,3.23
2019-06-08T10:04:02.779Z,2.70
2019-06-08T10:06:37.733Z,1.23
2019-06-08T10:09:11.503Z,1.20
2019-06-08T10:11:48.857Z,1.00
2019-06-08T10:14:21.057Z,3.23
2019-06-08T10:16:56.882Z,1.00
2019-06-08T10:19:29.075Z,6.27
2019-06-08T10:22:08.770Z,2.10
2019-06-08T10:24:41.520Z,1.30
2019-06-08T10:27:18.738Z,1.63
2019-06-08T10:29:50.738Z,5.33
2019-06-08T10:32:28.267Z,2.23
2019-06-08T10:35:12.451Z,4.93
2019-06-08T10:37:55.659Z,7.40
2019-06-08T10:40:31.030Z,7.50
2019-06-08T10:43:03.448Z,2.70
2019-06-08T10:45:39.681Z,6.67
2019-06-08T10:48:12.452Z,1.37
2019-06-08T10:50:47.483Z,3.97
2019-06-08T10:53:21.402Z,2.40
2019-06-08T10:55:57.853Z,6.17
2019-06-08T10:58:29.217Z,1.37
2019-06-08T11:01:04.071Z,2.50
2019-06-08T11:03:43.571Z,4.30
2019-06-08T11:06:18.785Z,1.33
2019-06-08T11:08:52.650Z,0.90
2019-06-08T11:11:28.417Z,2.60
2019-06-08T11:14:03.838Z,4.00
2019-06-08T11:16:38.574Z,2.23
2019-06-08T11:19:14.259Z,0.80
2019-06-08T11:21:48.193Z,3.60
2019-06-08T11:24:24.886Z,4.80
2019-06-08T11:26:57.631Z,1.17
2019-06-08T11:29:30.700Z,3.63
2019-06-08T11:32:04.255Z,6.57
2019-06-08T11:34:38.003Z,1.50
2019-06-08T11:37:13.699Z,1.47
2019-06-08T11:39:49.059Z,1.77
2019-06-08T11:42:21.698Z,5.73
2019-06-08T11:44:58.666Z,1.30
2019-06-08T11:47:34.261Z,1.53
2019-06-08T11:50:20.521Z,5.63
2019-06-08T11:52:55.672Z,14.77
2019-06-08T11:55:39.277Z,3.07
2019-06-08T11:58:13.838Z,2.03
2019-06-08T12:00:54.687Z,1.60
2019-06-08T12:03:30.513Z,1.50
2019-06-08T12:06:10.469Z,1.63
2019-06-08T12:08:41.647Z,2.03
2019-06-08T12:11:19.706Z,1.23
2019-06-08T12:13:53.916Z,1.67
2019-06-08T12:16:28.706Z,1.50
2019-06-08T12:19:01.859Z,4.97
2019-06-08T12:21:37.205Z,2.50
2019-06-08T12:24:12.353Z,3.03
2019-06-08T12:26:43.896Z,1.20
2019-06-08T12:29:18.758Z,1.00
2019-06-08T12:31:52.011Z,1.73
2019-06-08T12:34:23.724Z,5.83
2019-06-08T12:36:58.296Z,1.27
2019-06-08T12:39:30.615Z,2.00
2019-06-08T12:42:01.780Z,2.00
2019-06-08T12:44:33.051Z,2.03
2019-06-08T12:47:10.702Z,1.67
2019-06-08T12:49:41.729Z,1.13
2019-06-08T12:52:16.721Z,1.50
2019-06-08T12:54:59.867Z,6.50
2019-06-08T12:57:28.594Z,3.73
2019-06-08T13:00:02.847Z,3.67
2019-06-08T13:02:51.856Z,4.73
2019-06-08T13:05:40.045Z,1.00
2019-06-08T13:08:15.279Z,2.10
2019-06-08T13:10:48.914Z,1.47
2019-06-08T13:13:24.297Z,2.80
2019-06-08T13:15:58.058Z,2.20
2019-06-08T13:18:30.042Z,1.00
2019-06-08T13:21:25.429Z,3.70
2019-06-08T13:23:48.100Z,5.20
2019-06-08T13:26:27.533Z,1.63
2019-06-08T13:28:54.240Z,8.03
2019-06-08T13:32:01.875Z,9.47
2019-06-08T13:34:34.024Z,0.90
2019-06-08T13:37:08.342Z,1.20
2019-06-08T13:39:42.143Z,4.27
2019-06-08T13:42:15.227Z,8.53
2019-06-08T13:44:47.532Z,1.97
2019-06-08T13:47:55.241Z,3.10
2019-06-08T13:50:27.248Z,0.90
2019-06-08T13:53:34.703Z,1.63
2019-06-08T13:56:08.490Z,0.93
2019-06-08T13:58:42.849Z,3.53
2019-06-08T14:01:19.667Z,1.57
2019-06-08T14:03:51.568Z,2.27
2019-06-08T14:06:36.606Z,7.33
2019-06-08T14:09:47.918Z,0.80
2019-06-08T14:12:21.653Z,2.00
2019-06-08T14:14:54.637Z,3.20
2019-06-08T14:17:27.137Z,2.53
2019-06-08T14:20:01.559Z,2.20
2019-06-08T14:22:39.896Z,2.20
2019-06-08T14:25:23.270Z,2.60
2019-06-08T14:27:57.496Z,1.77
2019-06-08T14:30:31.724Z,2.10
2019-06-08T14:33:05.179Z,2.00
2019-06-08T14:35:39.711Z,2.53
2019-06-08T14:38:13.463Z,1.53
2019-06-08T14:40:47.510Z,2.40
2019-06-08T14:43:20.970Z,2.00
2019-06-08T14:45:52.525Z,6.90
2019-06-08T14:48:33.140Z,6.63
2019-06-08T14:51:01.469Z,1.77
2019-06-08T14:53:35.549Z,1.67
2019-06-08T14:56:09.615Z,1.20
2019-06-08T14:58:52.339Z,1.80
2019-06-08T15:01:25.712Z,2.23
2019-06-08T15:04:02.346Z,2.00
2019-06-08T15:06:38.355Z,2.13
2019-06-08T15:09:11.610Z,1.90
2019-06-08T15:11:47.926Z,4.20
2019-06-08T15:14:21.751Z,1.23
2019-06-08T15:16:53.778Z,2.17
2019-06-08T15:19:30.407Z,1.10
2019-06-08T15:22:01.694Z,3.10
2019-06-08T15:24:34.588Z,1.50
2019-06-08T15:27:08.503Z,1.00
2019-06-08T15:29:39.498Z,6.30
2019-06-08T15:32:10.693Z,3.10
2019-06-08T15:34:42.851Z,2.57
2019-06-08T15:37:18.559Z,7.47
2019-06-08T15:39:51.687Z,2.10
2019-06-08T15:42:28.710Z,2.70
2019-06-08T15:45:02.415Z,1.53
2019-06-08T15:47:34.444Z,1.43
2019-06-08T15:50:20.686Z,1.80
2019-06-08T15:52:54.806Z,2.33
2019-06-08T15:55:31.272Z,8.70
2019-06-08T15:58:02.802Z,4.30
2019-06-08T16:00:36.031Z,7.63
2019-06-08T16:03:07.868Z,3.67
2019-06-08T16:05:39.923Z,1.53
2019-06-08T16:08:12.882Z,4.17
2019-06-08T16:10:44.957Z,1.57
2019-06-08T16:13:53.672Z,3.37
2019-06-08T16:16:27.155Z,5.60
2019-06-08T16:19:00.144Z,3.47
2019-06-08T16:21:31.924Z,4.00
2019-06-08T16:24:06.842Z,9.10
2019-06-08T16:26:52.659Z,1.40
2019-06-08T16:29:17.027Z,5.20
2019-06-08T16:31:49.876Z,4.83
2019-06-08T16:34:23.176Z,1.27
2019-06-08T16:36:56.042Z,3.63
2019-06-08T16:39:29.050Z,7.57
2019-06-08T16:42:01.089Z,4.60
2019-06-08T16:44:36.553Z,3.20
2019-06-08T16:47:09.159Z,2.30
2019-06-08T16:49:43.087Z,3.00
2019-06-08T16:52:18.729Z,1.40
2019-06-08T16:54:52.129Z,4.07
2019-06-08T16:57:26.604Z,1.57
2019-06-08T17:00:00.037Z,2.70
2019-06-08T17:02:39.368Z,5.27
2019-06-08T17:05:18.870Z,7.00
2019-06-08T17:07:51.269Z,2.57
2019-06-08T17:10:23.314Z,3.53
2019-06-08T17:12:56.254Z,2.13
2019-06-08T17:15:29.952Z,1.30
2019-06-08T17:18:02.362Z,4.30
2019-06-08T17:20:36.279Z,3.10
2019-06-08T17:23:11.902Z,1.97
2019-06-08T17:25:43.663Z,1.60
2019-06-08T17:28:15.404Z,5.03
2019-06-08T17:30:47.160Z,6.20
2019-06-08T17:33:18.348Z,1.63
2019-06-08T17:35:51.290Z,1.60
2019-06-08T17:38:23.400Z,1.40
2019-06-08T17:40:55.246Z,1.50
2019-06-08T17:43:29.506Z,4.33
2019-06-08T17:46:03.218Z,2.00
2019-06-08T17:48:39.162Z,2.80
2019-06-08T17:51:13.502Z,2.20
2019-06-08T17:53:46.035Z,8.40
2019-06-08T17:56:19.321Z,5.03
2019-06-08T17:58:54.898Z,2.13
2019-06-08T18:01:26.381Z,3.00
2019-06-08T18:04:00.667Z,3.03
2019-06-08T18:06:35.719Z,1.50
2019-06-08T18:09:08.462Z,2.73
2019-06-08T18:11:42.267Z,6.20
2019-06-08T18:14:18.095Z,13.37
2019-06-08T18:16:49.550Z,1.30
2019-06-08T18:19:28.318Z,7.43
2019-06-08T18:22:05.826Z,5.33
2019-06-08T18:24:40.879Z,1.90
2019-06-08T18:27:12.562Z,3.50
2019-06-08T18:29:45.352Z,3.23
2019-06-08T18:32:19.595Z,5.07
2019-06-08T18:34:52.887Z,4.03
2019-06-08T18:37:28.307Z,7.07
2019-06-08T18:39:58.971Z,1.70
2019-06-08T18:42:35.293Z,4.40
2019-06-08T18:45:22.053Z,1.43
2019-06-08T18:47:57.784Z,2.03
2019-06-08T18:50:29.736Z,5.83
2019-06-08T18:53:01.801Z,3.60
2019-06-08T18:55:36.305Z,1.80
2019-06-08T18:58:20.640Z,2.40
2019-06-08T19:00:44.723Z,4.97
2019-06-08T19:03:18.644Z,5.93
2019-06-08T19:05:52.071Z,5.40
2019-06-08T19:08:24.714Z,3.93
2019-06-08T19:10:58.902Z,5.17
2019-06-08T19:13:34.947Z,1.70
2019-06-08T19:16:07.583Z,1.60
2019-06-08T19:18:45.799Z,3.73
2019-06-08T19:21:17.801Z,5.63
2019-06-08T19:23:52.045Z,2.70
2019-06-08T19:26:28.193Z,4.13
2019-06-08T19:29:00.289Z,6.30
2019-06-08T19:31:38.606Z,3.00
2019-06-08T19:34:11.838Z,2.60
2019-06-08T19:36:48.411Z,7.17
2019-06-08T19:39:18.472Z,1.63
2019-06-08T19:41:51.912Z,2.50
2019-06-08T19:44:24.080Z,5.87
2019-06-08T19:46:57.373Z,1.87
2019-06-08T19:49:31.059Z,1.57
2019-06-08T19:52:04.517Z,1.10
2019-06-08T19:54:43.636Z,1.53
2019-06-08T19:57:17.483Z,3.13
2019-06-08T19:59:50.876Z,4.53
2019-06-08T20:02:24.134Z,1.40
2019-06-08T20:04:59.000Z,1.60
2019-06-08T20:07:32.224Z,1.77
2019-06-08T20:10:18.106Z,2.60
2019-06-08T20:12:51.271Z,2.03
2019-06-08T20:15:54.735Z,1.33
2019-06-08T20:18:23.139Z,1.57
2019-06-08T20:20:58.609Z,1.37
2019-06-08T20:23:32.366Z,2.07
2019-06-08T20:26:08.474Z,3.93
2019-06-08T20:28:42.048Z,2.17
2019-06-08T20:31:18.032Z,3.93
2019-06-08T20:33:52.069Z,2.80
2019-06-08T20:36:28.681Z,1.10
2019-06-08T20:39:00.978Z,4.63
2019-06-08T20:41:34.223Z,4.63
2019-06-08T20:44:08.452Z,9.90
2019-06-08T20:46:42.051Z,2.30
2019-06-08T20:49:14.409Z,4.17
2019-06-08T20:51:49.403Z,1.20
2019-06-08T20:54:24.114Z,2.90
2019-06-08T20:56:58.037Z,2.23
2019-06-08T20:59:34.279Z,10.27
2019-06-08T21:02:08.163Z,1.47
2019-06-08T21:04:39.837Z,5.70
2019-06-08T21:07:11.495Z,3.10
2019-06-08T21:09:47.074Z,1.37
2019-06-08T21:12:21.175Z,2.20
2019-06-08T21:14:54.226Z,5.33
2019-06-08T21:17:29.420Z,1.40
2019-06-08T21:20:04.548Z,1.43
2019-06-08T21:22:50.049Z,3.53
2019-06-08T21:25:37.234Z,5.67
2019-06-08T21:28:22.804Z,1.60
2019-06-08T21:31:01.249Z,1.40
2019-06-08T21:33:30.477Z,2.83
2019-06-08T21:36:04.842Z,8.27
2019-06-08T21:38:37.849Z,1.87
2019-06-08T21:41:11.572Z,4.40
2019-06-08T21:43:45.512Z,1.80
2019-06-08T21:46:18.538Z,9.73
2019-06-08T21:48:53.491Z,1.73
2019-06-08T21:51:26.731Z,1.83
2019-06-08T21:54:02.292Z,4.73
2019-06-08T21:56:37.027Z,5.07
2019-06-08T21:59:11.963Z,5.80
2019-06-08T22:01:49.071Z,5.00
2019-06-08T22:04:21.702Z,4.93
2019-06-08T22:06:59.669Z,2.80
2019-06-08T22:09:34.006Z,2.83
2019-06-08T22:12:07.871Z,2.67
2019-06-08T22:14:43.671Z,3.90
2019-06-08T22:17:18.835Z,3.00
2019-06-08T22:19:51.669Z,9.30
2019-06-08T22:22:23.967Z,1.33
2019-06-08T22:25:00.977Z,2.00
2019-06-08T22:27:33.174Z,5.73
2019-06-08T22:30:35.146Z,1.30
2019-06-08T22:32:59.791Z,4.20
2019-06-08T22:35:31.034Z,3.70
2019-06-08T22:38:03.344Z,2.50
2019-06-08T22:40:38.206Z,1.13
2019-06-08T22:43:11.502Z,1.77
2019-06-08T22:45:48.165Z,1.77
2019-06-08T22:48:19.659Z,1.17
2019-06-08T22:50:55.581Z,3.13
2019-06-08T22:53:29.374Z,3.10
2019-06-08T22:56:08.070Z,3.00
2019-06-08T22:58:47.764Z,1.57
2019-06-08T23:01:20.514Z,2.40
2019-06-08T23:03:53.648Z,6.10
2019-06-08T23:06:28.057Z,1.63
2019-06-08T23:09:02.991Z,1.50
2019-06-08T23:11:37.560Z,1.00
2019-06-08T23:14:13.664Z,2.20
2019-06-08T23:16:47.206Z,7.30
2019-06-08T23:19:20.429Z,4.03
2019-06-08T23:21:52.746Z,1.77
2019-06-08T23:24:28.301Z,3.57
2019-06-08T23:27:04.276Z,1.30
2019-06-08T23:29:39.538Z,3.13
2019-06-08T23:32:11.878Z,8.37
2019-06-08T23:34:47.837Z,2.20
2019-06-08T23:37:19.898Z,3.77
2019-06-08T23:39:57.943Z,2.33
2019-06-08T23:42:31.860Z,1.50
2019-06-08T23:45:17.708Z,1.20
2019-06-08T23:47:53.632Z,1.73
2019-06-08T23:50:27.296Z,4.20
2019-06-08T23:53:00.694Z,5.43
2019-06-08T23:55:34.150Z,3.50
2019-06-08T23:58:08.113Z,3.10
